sensor_id;sensor_type;location;lat;lon;timestamp;P1;durP1;ratioP1;P2;durP2;ratioP2
67274;SDS011;55463;52.324;5.122;2023-05-10T00:00:24;59.28;;;28.30;;
67274;SDS011;55463;52.324;5.122;2023-05-10T00:02:50;40.97;;;23.13;;
67274;SDS011;55463;52.324;5.122;2023-05-10T00:05:15;76.05;;;30.00;;
67274;SDS011;55463;52.324;5.122;2023-05-10T00:07:41;55.00;;;29.20;;
67274;SDS011;55463;52.324;5.122;2023-05-10T00:10:09;59.20;;;27.88;;
67274;SDS011;55463;52.324;5.122;2023-05-10T00:12:35;53.10;;;27.38;;
67274;SDS011;55463;52.324;5.122;2023-05-10T00:15:01;50.70;;;25.65;;
67274;SDS011;55463;52.324;5.122;2023-05-10T00:17:26;49.88;;;26.13;;
67274;SDS011;55463;52.324;5.122;2023-05-10T00:19:52;70.22;;;30.73;;
67274;SDS011;55463;52.324;5.122;2023-05-10T00:22:17;68.53;;;30.42;;
67274;SDS011;55463;52.324;5.122;2023-05-10T00:24:42;57.70;;;28.92;;
67274;SDS011;55463;52.324;5.122;2023-05-10T00:27:08;51.05;;;28.17;;
67274;SDS011;55463;52.324;5.122;2023-05-10T00:29:33;62.13;;;29.48;;
67274;SDS011;55463;52.324;5.122;2023-05-10T00:31:58;75.10;;;33.15;;
67274;SDS011;55463;52.324;5.122;2023-05-10T00:34:24;68.88;;;31.58;;
67274;SDS011;55463;52.324;5.122;2023-05-10T00:36:49;52.53;;;27.17;;
67274;SDS011;55463;52.324;5.122;2023-05-10T00:39:15;64.95;;;31.27;;
67274;SDS011;55463;52.324;5.122;2023-05-10T00:41:40;56.97;;;27.65;;
67274;SDS011;55463;52.324;5.122;2023-05-10T00:44:06;79.45;;;31.88;;
67274;SDS011;55463;52.324;5.122;2023-05-10T00:46:31;77.65;;;34.00;;
67274;SDS011;55463;52.324;5.122;2023-05-10T00:48:57;73.25;;;31.00;;
67274;SDS011;55463;52.324;5.122;2023-05-10T00:51:23;81.82;;;34.50;;
67274;SDS011;55463;52.324;5.122;2023-05-10T00:53:48;74.68;;;32.85;;
67274;SDS011;55463;52.324;5.122;2023-05-10T00:56:15;57.80;;;30.40;;
67274;SDS011;55463;52.324;5.122;2023-05-10T00:58:41;70.10;;;32.17;;
67274;SDS011;55463;52.324;5.122;2023-05-10T01:01:07;87.53;;;35.13;;
67274;SDS011;55463;52.324;5.122;2023-05-10T01:03:34;65.20;;;31.60;;
67274;SDS011;55463;52.324;5.122;2023-05-10T01:06:00;95.40;;;36.83;;
67274;SDS011;55463;52.324;5.122;2023-05-10T01:08:26;77.10;;;35.08;;
67274;SDS011;55463;52.324;5.122;2023-05-10T01:10:52;65.00;;;31.08;;
67274;SDS011;55463;52.324;5.122;2023-05-10T01:13:38;70.65;;;33.33;;
67274;SDS011;55463;52.324;5.122;2023-05-10T01:16:04;73.57;;;32.60;;
67274;SDS011;55463;52.324;5.122;2023-05-10T01:18:31;79.20;;;34.75;;
67274;SDS011;55463;52.324;5.122;2023-05-10T01:21:15;74.90;;;35.53;;
67274;SDS011;55463;52.324;5.122;2023-05-10T01:24:37;78.50;;;35.25;;
67274;SDS011;55463;52.324;5.122;2023-05-10T01:29:59;71.32;;;34.55;;
67274;SDS011;55463;52.324;5.122;2023-05-10T01:35:37;88.90;;;38.35;;
67274;SDS011;55463;52.324;5.122;2023-05-10T01:38:14;72.82;;;36.60;;
67274;SDS011;55463;52.324;5.122;2023-05-10T01:51:51;75.80;;;37.53;;
67274;SDS011;55463;52.324;5.122;2023-05-10T01:54:20;62.50;;;34.63;;
67274;SDS011;55463;52.324;5.122;2023-05-10T01:56:52;60.63;;;34.50;;
67274;SDS011;55463;52.324;5.122;2023-05-10T01:59:24;65.32;;;35.85;;
67274;SDS011;55463;52.324;5.122;2023-05-10T02:01:54;75.18;;;37.17;;
67274;SDS011;55463;52.324;5.122;2023-05-10T02:04:23;75.43;;;38.90;;
67274;SDS011;55463;52.324;5.122;2023-05-10T02:06:50;74.40;;;38.35;;
67274;SDS011;55463;52.324;5.122;2023-05-10T02:09:17;78.47;;;41.45;;
67274;SDS011;55463;52.324;5.122;2023-05-10T02:11:44;78.10;;;40.00;;
67274;SDS011;55463;52.324;5.122;2023-05-10T02:14:12;65.75;;;36.75;;
67274;SDS011;55463;52.324;5.122;2023-05-10T02:16:40;79.05;;;40.85;;
67274;SDS011;55463;52.324;5.122;2023-05-10T02:19:07;80.20;;;39.65;;
67274;SDS011;55463;52.324;5.122;2023-05-10T02:21:35;72.40;;;37.58;;
67274;SDS011;55463;52.324;5.122;2023-05-10T02:24:01;83.70;;;40.90;;
67274;SDS011;55463;52.324;5.122;2023-05-10T02:26:28;81.35;;;41.00;;
67274;SDS011;55463;52.324;5.122;2023-05-10T02:28:54;101.53;;;46.15;;
67274;SDS011;55463;52.324;5.122;2023-05-10T02:31:23;100.47;;;45.85;;
67274;SDS011;55463;52.324;5.122;2023-05-10T02:33:49;90.85;;;44.38;;
67274;SDS011;55463;52.324;5.122;2023-05-10T02:36:16;89.45;;;44.45;;
67274;SDS011;55463;52.324;5.122;2023-05-10T02:38:42;81.32;;;42.20;;
67274;SDS011;55463;52.324;5.122;2023-05-10T02:41:09;88.32;;;42.58;;
67274;SDS011;55463;52.324;5.122;2023-05-10T02:43:36;97.90;;;44.53;;
67274;SDS011;55463;52.324;5.122;2023-05-10T02:46:04;90.80;;;43.55;;
67274;SDS011;55463;52.324;5.122;2023-05-10T02:48:30;103.13;;;43.50;;
67274;SDS011;55463;52.324;5.122;2023-05-10T02:50:56;100.50;;;45.00;;
67274;SDS011;55463;52.324;5.122;2023-05-10T02:53:32;104.10;;;45.57;;
67274;SDS011;55463;52.324;5.122;2023-05-10T02:56:01;111.25;;;44.95;;
67274;SDS011;55463;52.324;5.122;2023-05-10T02:58:49;143.10;;;48.28;;
67274;SDS011;55463;52.324;5.122;2023-05-10T03:01:15;123.15;;;43.92;;
67274;SDS011;55463;52.324;5.122;2023-05-10T03:03:41;119.60;;;42.83;;
67274;SDS011;55463;52.324;5.122;2023-05-10T03:06:06;127.70;;;39.45;;
67274;SDS011;55463;52.324;5.122;2023-05-10T03:08:32;136.85;;;43.53;;
67274;SDS011;55463;52.324;5.122;2023-05-10T03:16:45;137.52;;;43.45;;
67274;SDS011;55463;52.324;5.122;2023-05-10T03:19:26;114.57;;;39.83;;
67274;SDS011;55463;52.324;5.122;2023-05-10T03:21:55;110.78;;;40.70;;
67274;SDS011;55463;52.324;5.122;2023-05-10T03:24:24;100.53;;;38.30;;
67274;SDS011;55463;52.324;5.122;2023-05-10T03:26:53;80.85;;;35.70;;
67274;SDS011;55463;52.324;5.122;2023-05-10T03:29:21;94.43;;;38.88;;
67274;SDS011;55463;52.324;5.122;2023-05-10T03:31:47;91.03;;;37.95;;
67274;SDS011;55463;52.324;5.122;2023-05-10T03:34:13;89.50;;;36.35;;
67274;SDS011;55463;52.324;5.122;2023-05-10T03:36:38;84.18;;;38.50;;
67274;SDS011;55463;52.324;5.122;2023-05-10T03:39:04;79.53;;;36.67;;
67274;SDS011;55463;52.324;5.122;2023-05-10T03:41:29;82.10;;;36.85;;
67274;SDS011;55463;52.324;5.122;2023-05-10T03:43:55;80.10;;;36.38;;
67274;SDS011;55463;52.324;5.122;2023-05-10T03:46:20;70.18;;;36.47;;
67274;SDS011;55463;52.324;5.122;2023-05-10T03:48:45;78.82;;;35.53;;
67274;SDS011;55463;52.324;5.122;2023-05-10T03:51:11;90.10;;;38.03;;
67274;SDS011;55463;52.324;5.122;2023-05-10T03:53:36;102.47;;;38.55;;
67274;SDS011;55463;52.324;5.122;2023-05-10T03:56:01;99.53;;;39.85;;
67274;SDS011;55463;52.324;5.122;2023-05-10T03:58:27;79.75;;;36.85;;
67274;SDS011;55463;52.324;5.122;2023-05-10T04:00:52;73.70;;;33.58;;
67274;SDS011;55463;52.324;5.122;2023-05-10T04:03:18;73.15;;;35.10;;
67274;SDS011;55463;52.324;5.122;2023-05-10T04:05:43;76.72;;;35.92;;
67274;SDS011;55463;52.324;5.122;2023-05-10T04:08:09;73.75;;;33.85;;
67274;SDS011;55463;52.324;5.122;2023-05-10T04:10:34;72.30;;;33.70;;
67274;SDS011;55463;52.324;5.122;2023-05-10T04:13:00;72.00;;;31.95;;
67274;SDS011;55463;52.324;5.122;2023-05-10T04:15:25;58.25;;;27.75;;
67274;SDS011;55463;52.324;5.122;2023-05-10T04:17:51;69.90;;;33.70;;
67274;SDS011;55463;52.324;5.122;2023-05-10T04:20:16;63.38;;;30.23;;
67274;SDS011;55463;52.324;5.122;2023-05-10T04:22:42;72.45;;;32.58;;
67274;SDS011;55463;52.324;5.122;2023-05-10T04:25:07;70.00;;;31.90;;
67274;SDS011;55463;52.324;5.122;2023-05-10T04:27:33;66.93;;;31.40;;
67274;SDS011;55463;52.324;5.122;2023-05-10T04:29:59;76.82;;;31.83;;
67274;SDS011;55463;52.324;5.122;2023-05-10T04:32:24;80.28;;;34.03;;
67274;SDS011;55463;52.324;5.122;2023-05-10T04:34:50;81.63;;;33.33;;
67274;SDS011;55463;52.324;5.122;2023-05-10T04:37:18;83.85;;;33.08;;
67274;SDS011;55463;52.324;5.122;2023-05-10T04:39:44;105.85;;;35.65;;
67274;SDS011;55463;52.324;5.122;2023-05-10T04:42:10;87.82;;;33.88;;
67274;SDS011;55463;52.324;5.122;2023-05-10T04:44:36;85.80;;;32.10;;
67274;SDS011;55463;52.324;5.122;2023-05-10T04:47:01;96.50;;;33.50;;
67274;SDS011;55463;52.324;5.122;2023-05-10T04:49:28;93.68;;;33.88;;
67274;SDS011;55463;52.324;5.122;2023-05-10T04:51:54;83.40;;;31.92;;
67274;SDS011;55463;52.324;5.122;2023-05-10T04:54:19;84.20;;;31.38;;
67274;SDS011;55463;52.324;5.122;2023-05-10T04:56:45;73.68;;;30.98;;
67274;SDS011;55463;52.324;5.122;2023-05-10T04:59:10;74.53;;;29.73;;
67274;SDS011;55463;52.324;5.122;2023-05-10T05:01:35;77.35;;;31.15;;
67274;SDS011;55463;52.324;5.122;2023-05-10T05:04:01;67.28;;;29.42;;
67274;SDS011;55463;52.324;5.122;2023-05-10T05:06:26;61.05;;;28.73;;
67274;SDS011;55463;52.324;5.122;2023-05-10T05:08:52;52.50;;;26.13;;
67274;SDS011;55463;52.324;5.122;2023-05-10T05:11:17;63.88;;;29.20;;
67274;SDS011;55463;52.324;5.122;2023-05-10T05:13:43;64.97;;;27.38;;
67274;SDS011;55463;52.324;5.122;2023-05-10T05:16:08;63.42;;;28.80;;
67274;SDS011;55463;52.324;5.122;2023-05-10T05:18:35;70.78;;;29.40;;
67274;SDS011;55463;52.324;5.122;2023-05-10T05:21:00;67.78;;;30.48;;
67274;SDS011;55463;52.324;5.122;2023-05-10T05:23:26;60.22;;;29.25;;
67274;SDS011;55463;52.324;5.122;2023-05-10T05:25:54;71.70;;;30.30;;
67274;SDS011;55463;52.324;5.122;2023-05-10T05:28:20;59.35;;;27.35;;
67274;SDS011;55463;52.324;5.122;2023-05-10T05:30:46;65.10;;;28.17;;
67274;SDS011;55463;52.324;5.122;2023-05-10T05:33:12;61.05;;;28.85;;
67274;SDS011;55463;52.324;5.122;2023-05-10T05:35:38;62.65;;;27.90;;
67274;SDS011;55463;52.324;5.122;2023-05-10T05:38:04;64.13;;;28.55;;
67274;SDS011;55463;52.324;5.122;2023-05-10T05:40:29;53.83;;;27.00;;
67274;SDS011;55463;52.324;5.122;2023-05-10T05:42:54;67.57;;;28.40;;
67274;SDS011;55463;52.324;5.122;2023-05-10T05:45:20;50.78;;;27.38;;
67274;SDS011;55463;52.324;5.122;2023-05-10T05:47:46;59.58;;;27.67;;
67274;SDS011;55463;52.324;5.122;2023-05-10T05:50:11;64.65;;;27.65;;
67274;SDS011;55463;52.324;5.122;2023-05-10T05:52:36;61.15;;;27.63;;
67274;SDS011;55463;52.324;5.122;2023-05-10T05:55:02;61.17;;;26.60;;
67274;SDS011;55463;52.324;5.122;2023-05-10T05:57:27;64.15;;;26.70;;
67274;SDS011;55463;52.324;5.122;2023-05-10T05:59:53;56.08;;;25.10;;
67274;SDS011;55463;52.324;5.122;2023-05-10T06:02:18;60.03;;;25.55;;
67274;SDS011;55463;52.324;5.122;2023-05-10T06:04:43;50.10;;;23.30;;
67274;SDS011;55463;52.324;5.122;2023-05-10T06:07:09;50.05;;;23.85;;
67274;SDS011;55463;52.324;5.122;2023-05-10T06:09:34;57.30;;;23.10;;
67274;SDS011;55463;52.324;5.122;2023-05-10T06:12:00;53.00;;;23.45;;
67274;SDS011;55463;52.324;5.122;2023-05-10T06:14:25;46.28;;;22.23;;
67274;SDS011;55463;52.324;5.122;2023-05-10T06:16:50;51.55;;;21.63;;
67274;SDS011;55463;52.324;5.122;2023-05-10T06:19:16;52.72;;;23.33;;
67274;SDS011;55463;52.324;5.122;2023-05-10T06:21:41;51.50;;;23.17;;
67274;SDS011;55463;52.324;5.122;2023-05-10T06:24:06;41.75;;;20.35;;
67274;SDS011;55463;52.324;5.122;2023-05-10T06:26:32;43.42;;;21.25;;
67274;SDS011;55463;52.324;5.122;2023-05-10T06:28:58;46.58;;;21.08;;
67274;SDS011;55463;52.324;5.122;2023-05-10T06:31:24;34.05;;;18.30;;
67274;SDS011;55463;52.324;5.122;2023-05-10T06:33:49;34.92;;;17.50;;
67274;SDS011;55463;52.324;5.122;2023-05-10T06:36:14;33.33;;;17.10;;
67274;SDS011;55463;52.324;5.122;2023-05-10T06:38:40;26.25;;;15.75;;
67274;SDS011;55463;52.324;5.122;2023-05-10T06:41:05;28.80;;;15.90;;
67274;SDS011;55463;52.324;5.122;2023-05-10T06:43:31;32.53;;;16.75;;
67274;SDS011;55463;52.324;5.122;2023-05-10T06:45:56;32.33;;;15.80;;
67274;SDS011;55463;52.324;5.122;2023-05-10T06:48:22;27.35;;;15.35;;
67274;SDS011;55463;52.324;5.122;2023-05-10T06:50:47;20.77;;;13.48;;
67274;SDS011;55463;52.324;5.122;2023-05-10T06:53:13;28.60;;;13.90;;
67274;SDS011;55463;52.324;5.122;2023-05-10T06:55:38;26.40;;;13.93;;
67274;SDS011;55463;52.324;5.122;2023-05-10T06:58:04;25.27;;;14.20;;
67274;SDS011;55463;52.324;5.122;2023-05-10T07:00:30;27.90;;;15.48;;
67274;SDS011;55463;52.324;5.122;2023-05-10T07:02:55;29.60;;;14.68;;
67274;SDS011;55463;52.324;5.122;2023-05-10T07:05:20;26.00;;;14.20;;
67274;SDS011;55463;52.324;5.122;2023-05-10T07:07:46;29.17;;;14.30;;
67274;SDS011;55463;52.324;5.122;2023-05-10T07:10:11;20.38;;;12.32;;
67274;SDS011;55463;52.324;5.122;2023-05-10T07:12:37;24.60;;;13.90;;
67274;SDS011;55463;52.324;5.122;2023-05-10T07:15:03;23.45;;;13.25;;
67274;SDS011;55463;52.324;5.122;2023-05-10T07:17:29;19.20;;;11.32;;
67274;SDS011;55463;52.324;5.122;2023-05-10T07:19:54;22.67;;;12.50;;
67274;SDS011;55463;52.324;5.122;2023-05-10T07:22:20;22.60;;;12.80;;
67274;SDS011;55463;52.324;5.122;2023-05-10T07:24:45;18.58;;;11.10;;
67274;SDS011;55463;52.324;5.122;2023-05-10T07:27:11;20.83;;;11.77;;
67274;SDS011;55463;52.324;5.122;2023-05-10T07:29:37;20.63;;;12.07;;
67274;SDS011;55463;52.324;5.122;2023-05-10T07:32:03;20.52;;;10.98;;
67274;SDS011;55463;52.324;5.122;2023-05-10T07:34:29;18.42;;;10.75;;
67274;SDS011;55463;52.324;5.122;2023-05-10T07:36:56;16.48;;;11.25;;
67274;SDS011;55463;52.324;5.122;2023-05-10T07:39:23;17.42;;;10.23;;
67274;SDS011;55463;52.324;5.122;2023-05-10T07:41:48;16.85;;;9.70;;
67274;SDS011;55463;52.324;5.122;2023-05-10T07:44:13;17.63;;;9.18;;
67274;SDS011;55463;52.324;5.122;2023-05-10T07:46:39;17.08;;;9.82;;
67274;SDS011;55463;52.324;5.122;2023-05-10T07:49:04;21.48;;;10.15;;
67274;SDS011;55463;52.324;5.122;2023-05-10T07:51:29;18.95;;;10.10;;
67274;SDS011;55463;52.324;5.122;2023-05-10T07:53:55;15.02;;;10.20;;
67274;SDS011;55463;52.324;5.122;2023-05-10T07:56:27;12.85;;;8.60;;
67274;SDS011;55463;52.324;5.122;2023-05-10T07:58:57;12.23;;;8.00;;
67274;SDS011;55463;52.324;5.122;2023-05-10T08:01:26;14.43;;;8.35;;
67274;SDS011;55463;52.324;5.122;2023-05-10T08:03:55;14.93;;;9.63;;
67274;SDS011;55463;52.324;5.122;2023-05-10T08:06:21;13.52;;;8.93;;
67274;SDS011;55463;52.324;5.122;2023-05-10T08:08:47;15.23;;;9.02;;
67274;SDS011;55463;52.324;5.122;2023-05-10T08:11:18;11.60;;;8.57;;
67274;SDS011;55463;52.324;5.122;2023-05-10T08:13:44;17.02;;;8.65;;
67274;SDS011;55463;52.324;5.122;2023-05-10T08:16:10;13.88;;;8.80;;
67274;SDS011;55463;52.324;5.122;2023-05-10T08:18:35;15.80;;;9.52;;
67274;SDS011;55463;52.324;5.122;2023-05-10T08:21:00;13.85;;;9.27;;
67274;SDS011;55463;52.324;5.122;2023-05-10T08:23:26;15.63;;;9.13;;
67274;SDS011;55463;52.324;5.122;2023-05-10T08:25:51;14.38;;;9.45;;
67274;SDS011;55463;52.324;5.122;2023-05-10T08:28:16;15.23;;;10.07;;
67274;SDS011;55463;52.324;5.122;2023-05-10T08:30:42;15.77;;;10.25;;
67274;SDS011;55463;52.324;5.122;2023-05-10T08:33:07;18.13;;;11.13;;
67274;SDS011;55463;52.324;5.122;2023-05-10T08:35:33;21.27;;;11.32;;
67274;SDS011;55463;52.324;5.122;2023-05-10T08:37:59;17.80;;;11.07;;
67274;SDS011;55463;52.324;5.122;2023-05-10T08:40:25;17.15;;;10.95;;
67274;SDS011;55463;52.324;5.122;2023-05-10T08:42:54;16.00;;;10.85;;
67274;SDS011;55463;52.324;5.122;2023-05-10T08:45:23;16.95;;;10.95;;
67274;SDS011;55463;52.324;5.122;2023-05-10T08:47:50;16.15;;;10.73;;
67274;SDS011;55463;52.324;5.122;2023-05-10T08:50:17;18.05;;;11.95;;
67274;SDS011;55463;52.324;5.122;2023-05-10T08:52:46;16.20;;;10.53;;
67274;SDS011;55463;52.324;5.122;2023-05-10T08:55:17;14.38;;;10.63;;
67274;SDS011;55463;52.324;5.122;2023-05-10T08:57:43;16.95;;;10.82;;
67274;SDS011;55463;52.324;5.122;2023-05-10T09:00:08;15.65;;;10.52;;
67274;SDS011;55463;52.324;5.122;2023-05-10T09:02:35;17.15;;;10.15;;
67274;SDS011;55463;52.324;5.122;2023-05-10T09:05:01;11.65;;;8.93;;
67274;SDS011;55463;52.324;5.122;2023-05-10T09:07:29;17.67;;;10.23;;
67274;SDS011;55463;52.324;5.122;2023-05-10T09:09:55;13.07;;;9.75;;
67274;SDS011;55463;52.324;5.122;2023-05-10T09:12:21;13.60;;;9.45;;
67274;SDS011;55463;52.324;5.122;2023-05-10T09:14:46;19.52;;;9.98;;
67274;SDS011;55463;52.324;5.122;2023-05-10T09:17:12;18.70;;;10.77;;
67274;SDS011;55463;52.324;5.122;2023-05-10T09:19:38;15.05;;;10.95;;
67274;SDS011;55463;52.324;5.122;2023-05-10T09:22:03;14.20;;;9.90;;
67274;SDS011;55463;52.324;5.122;2023-05-10T09:24:29;12.35;;;9.55;;
67274;SDS011;55463;52.324;5.122;2023-05-10T09:26:55;14.43;;;9.80;;
67274;SDS011;55463;52.324;5.122;2023-05-10T09:29:21;16.13;;;11.20;;
67274;SDS011;55463;52.324;5.122;2023-05-10T09:31:48;14.30;;;9.75;;
67274;SDS011;55463;52.324;5.122;2023-05-10T09:34:20;19.95;;;10.30;;
67274;SDS011;55463;52.324;5.122;2023-05-10T09:36:54;16.65;;;10.20;;
67274;SDS011;55463;52.324;5.122;2023-05-10T09:39:29;12.20;;;8.65;;
67274;SDS011;55463;52.324;5.122;2023-05-10T09:41:56;17.23;;;9.07;;
67274;SDS011;55463;52.324;5.122;2023-05-10T09:44:22;12.38;;;7.97;;
67274;SDS011;55463;52.324;5.122;2023-05-10T09:46:50;11.45;;;7.82;;
67274;SDS011;55463;52.324;5.122;2023-05-10T09:49:17;11.32;;;7.57;;
67274;SDS011;55463;52.324;5.122;2023-05-10T09:51:44;10.10;;;7.25;;
67274;SDS011;55463;52.324;5.122;2023-05-10T09:54:16;8.60;;;5.75;;
67274;SDS011;55463;52.324;5.122;2023-05-10T09:56:42;9.30;;;6.30;;
67274;SDS011;55463;52.324;5.122;2023-05-10T09:59:09;7.95;;;5.60;;
67274;SDS011;55463;52.324;5.122;2023-05-10T10:01:36;5.43;;;4.63;;
67274;SDS011;55463;52.324;5.122;2023-05-10T10:04:02;10.90;;;5.00;;
67274;SDS011;55463;52.324;5.122;2023-05-10T10:06:37;6.95;;;4.20;;
67274;SDS011;55463;52.324;5.122;2023-05-10T10:09:03;5.90;;;4.28;;
67274;SDS011;55463;52.324;5.122;2023-05-10T10:11:29;6.00;;;4.30;;
67274;SDS011;55463;52.324;5.122;2023-05-10T10:13:55;5.35;;;3.72;;
67274;SDS011;55463;52.324;5.122;2023-05-10T10:16:20;5.45;;;4.03;;
67274;SDS011;55463;52.324;5.122;2023-05-10T10:18:46;7.85;;;3.90;;
67274;SDS011;55463;52.324;5.122;2023-05-10T10:21:13;5.13;;;3.80;;
67274;SDS011;55463;52.324;5.122;2023-05-10T10:23:39;4.25;;;3.63;;
67274;SDS011;55463;52.324;5.122;2023-05-10T10:26:05;8.65;;;3.95;;
67274;SDS011;55463;52.324;5.122;2023-05-10T10:28:37;5.80;;;3.83;;
67274;SDS011;55463;52.324;5.122;2023-05-10T10:31:26;5.72;;;3.60;;
67274;SDS011;55463;52.324;5.122;2023-05-10T10:34:07;5.47;;;3.75;;
67274;SDS011;55463;52.324;5.122;2023-05-10T10:36:45;7.00;;;3.42;;
67274;SDS011;55463;52.324;5.122;2023-05-10T10:39:12;6.22;;;3.53;;
67274;SDS011;55463;52.324;5.122;2023-05-10T10:41:40;4.78;;;3.38;;
67274;SDS011;55463;52.324;5.122;2023-05-10T10:49:49;4.10;;;3.10;;
67274;SDS011;55463;52.324;5.122;2023-05-10T10:52:30;4.82;;;3.28;;
67274;SDS011;55463;52.324;5.122;2023-05-10T10:55:07;8.93;;;3.78;;
67274;SDS011;55463;52.324;5.122;2023-05-10T10:57:43;4.80;;;3.15;;
67274;SDS011;55463;52.324;5.122;2023-05-10T11:02:56;7.28;;;3.50;;
67274;SDS011;55463;52.324;5.122;2023-05-10T11:08:14;7.07;;;3.47;;
67274;SDS011;55463;52.324;5.122;2023-05-10T11:13:37;3.80;;;3.23;;
67274;SDS011;55463;52.324;5.122;2023-05-10T11:18:38;7.65;;;3.47;;
67274;SDS011;55463;52.324;5.122;2023-05-10T11:21:04;7.45;;;4.03;;
67274;SDS011;55463;52.324;5.122;2023-05-10T11:23:33;8.07;;;4.28;;
67274;SDS011;55463;52.324;5.122;2023-05-10T11:26:14;5.68;;;3.42;;
67274;SDS011;55463;52.324;5.122;2023-05-10T11:28:46;10.27;;;4.43;;
67274;SDS011;55463;52.324;5.122;2023-05-10T11:31:13;5.80;;;4.35;;
67274;SDS011;55463;52.324;5.122;2023-05-10T11:33:58;7.00;;;4.32;;
67274;SDS011;55463;52.324;5.122;2023-05-10T11:36:27;8.23;;;4.18;;
67274;SDS011;55463;52.324;5.122;2023-05-10T11:38:54;5.75;;;4.25;;
67274;SDS011;55463;52.324;5.122;2023-05-10T11:41:22;6.70;;;3.97;;
67274;SDS011;55463;52.324;5.122;2023-05-10T11:43:57;5.85;;;4.00;;
67274;SDS011;55463;52.324;5.122;2023-05-10T11:46:24;6.20;;;3.50;;
67274;SDS011;55463;52.324;5.122;2023-05-10T11:48:52;7.72;;;3.65;;
67274;SDS011;55463;52.324;5.122;2023-05-10T11:51:21;5.90;;;4.03;;
67274;SDS011;55463;52.324;5.122;2023-05-10T11:53:48;3.22;;;2.90;;
67274;SDS011;55463;52.324;5.122;2023-05-10T11:56:15;6.18;;;2.95;;
67274;SDS011;55463;52.324;5.122;2023-05-10T11:58:40;4.40;;;3.03;;
67274;SDS011;55463;52.324;5.122;2023-05-10T12:01:06;6.28;;;3.30;;
67274;SDS011;55463;52.324;5.122;2023-05-10T12:03:33;7.10;;;3.17;;
67274;SDS011;55463;52.324;5.122;2023-05-10T12:05:59;4.50;;;3.03;;
67274;SDS011;55463;52.324;5.122;2023-05-10T12:08:26;4.72;;;3.17;;
67274;SDS011;55463;52.324;5.122;2023-05-10T12:10:53;7.13;;;4.43;;
67274;SDS011;55463;52.324;5.122;2023-05-10T12:13:29;6.63;;;4.45;;
67274;SDS011;55463;52.324;5.122;2023-05-10T12:15:56;7.57;;;4.78;;
67274;SDS011;55463;52.324;5.122;2023-05-10T12:18:23;6.97;;;4.10;;
67274;SDS011;55463;52.324;5.122;2023-05-10T12:20:52;8.48;;;4.47;;
67274;SDS011;55463;52.324;5.122;2023-05-10T12:23:18;6.78;;;4.30;;
67274;SDS011;55463;52.324;5.122;2023-05-10T12:25:45;5.95;;;3.72;;
67274;SDS011;55463;52.324;5.122;2023-05-10T12:28:10;5.80;;;3.40;;
67274;SDS011;55463;52.324;5.122;2023-05-10T12:30:36;4.68;;;3.25;;
67274;SDS011;55463;52.324;5.122;2023-05-10T12:33:02;4.38;;;3.20;;
67274;SDS011;55463;52.324;5.122;2023-05-10T12:35:51;5.65;;;3.83;;
67274;SDS011;55463;52.324;5.122;2023-05-10T12:38:24;8.75;;;3.40;;
67274;SDS011;55463;52.324;5.122;2023-05-10T12:40:54;4.55;;;3.40;;
67274;SDS011;55463;52.324;5.122;2023-05-10T12:43:20;4.72;;;3.70;;
67274;SDS011;55463;52.324;5.122;2023-05-10T12:45:45;5.85;;;3.83;;
67274;SDS011;55463;52.324;5.122;2023-05-10T12:48:13;6.43;;;3.45;;
67274;SDS011;55463;52.324;5.122;2023-05-10T12:50:39;3.45;;;3.15;;
67274;SDS011;55463;52.324;5.122;2023-05-10T12:53:05;4.47;;;3.47;;
67274;SDS011;55463;52.324;5.122;2023-05-10T12:55:30;9.40;;;3.53;;
67274;SDS011;55463;52.324;5.122;2023-05-10T12:57:56;5.40;;;4.00;;
67274;SDS011;55463;52.324;5.122;2023-05-10T13:00:21;6.65;;;3.70;;
67274;SDS011;55463;52.324;5.122;2023-05-10T13:02:47;7.05;;;4.45;;
67274;SDS011;55463;52.324;5.122;2023-05-10T13:05:12;7.10;;;4.40;;
67274;SDS011;55463;52.324;5.122;2023-05-10T13:07:38;6.95;;;4.63;;
67274;SDS011;55463;52.324;5.122;2023-05-10T13:10:04;8.77;;;4.97;;
67274;SDS011;55463;52.324;5.122;2023-05-10T13:12:31;7.25;;;4.93;;
67274;SDS011;55463;52.324;5.122;2023-05-10T13:14:56;12.30;;;6.18;;
67274;SDS011;55463;52.324;5.122;2023-05-10T13:17:22;10.38;;;6.18;;
67274;SDS011;55463;52.324;5.122;2023-05-10T13:19:47;9.23;;;6.05;;
67274;SDS011;55463;52.324;5.122;2023-05-10T13:22:13;11.48;;;6.50;;
67274;SDS011;55463;52.324;5.122;2023-05-10T13:24:38;10.50;;;6.82;;
67274;SDS011;55463;52.324;5.122;2023-05-10T13:27:03;12.50;;;7.53;;
67274;SDS011;55463;52.324;5.122;2023-05-10T13:29:29;10.65;;;6.63;;
67274;SDS011;55463;52.324;5.122;2023-05-10T13:31:54;9.15;;;6.60;;
67274;SDS011;55463;52.324;5.122;2023-05-10T13:34:19;12.65;;;7.03;;
67274;SDS011;55463;52.324;5.122;2023-05-10T13:36:45;11.95;;;7.22;;
67274;SDS011;55463;52.324;5.122;2023-05-10T13:39:11;12.10;;;7.75;;
67274;SDS011;55463;52.324;5.122;2023-05-10T13:41:37;11.55;;;6.95;;
67274;SDS011;55463;52.324;5.122;2023-05-10T13:44:02;12.27;;;6.78;;
67274;SDS011;55463;52.324;5.122;2023-05-10T13:46:28;13.05;;;6.88;;
67274;SDS011;55463;52.324;5.122;2023-05-10T13:48:55;9.88;;;5.82;;
67274;SDS011;55463;52.324;5.122;2023-05-10T13:51:21;10.52;;;5.05;;
67274;SDS011;55463;52.324;5.122;2023-05-10T13:53:47;8.15;;;5.20;;
67274;SDS011;55463;52.324;5.122;2023-05-10T13:56:12;6.72;;;4.88;;
67274;SDS011;55463;52.324;5.122;2023-05-10T13:58:39;7.45;;;4.93;;
67274;SDS011;55463;52.324;5.122;2023-05-10T14:01:06;6.80;;;5.00;;
67274;SDS011;55463;52.324;5.122;2023-05-10T14:03:31;6.70;;;4.43;;
67274;SDS011;55463;52.324;5.122;2023-05-10T14:05:57;7.13;;;3.88;;
67274;SDS011;55463;52.324;5.122;2023-05-10T14:08:23;4.95;;;3.50;;
67274;SDS011;55463;52.324;5.122;2023-05-10T14:10:48;4.75;;;3.30;;
67274;SDS011;55463;52.324;5.122;2023-05-10T14:13:14;5.13;;;2.95;;
67274;SDS011;55463;52.324;5.122;2023-05-10T14:15:40;5.53;;;3.03;;
67274;SDS011;55463;52.324;5.122;2023-05-10T14:18:06;5.38;;;3.17;;
67274;SDS011;55463;52.324;5.122;2023-05-10T14:20:31;5.88;;;3.50;;
67274;SDS011;55463;52.324;5.122;2023-05-10T14:22:58;6.90;;;3.63;;
67274;SDS011;55463;52.324;5.122;2023-05-10T14:25:24;8.60;;;4.22;;
67274;SDS011;55463;52.324;5.122;2023-05-10T14:27:50;11.80;;;4.88;;
67274;SDS011;55463;52.324;5.122;2023-05-10T14:30:15;10.32;;;5.25;;
67274;SDS011;55463;52.324;5.122;2023-05-10T14:32:41;8.20;;;4.45;;
67274;SDS011;55463;52.324;5.122;2023-05-10T14:35:06;10.68;;;5.13;;
67274;SDS011;55463;52.324;5.122;2023-05-10T14:37:32;9.77;;;4.32;;
67274;SDS011;55463;52.324;5.122;2023-05-10T14:39:58;10.50;;;4.82;;
67274;SDS011;55463;52.324;5.122;2023-05-10T14:42:23;8.52;;;4.90;;
67274;SDS011;55463;52.324;5.122;2023-05-10T14:44:48;8.43;;;5.07;;
67274;SDS011;55463;52.324;5.122;2023-05-10T14:47:14;8.88;;;5.30;;
67274;SDS011;55463;52.324;5.122;2023-05-10T14:49:39;8.85;;;5.25;;
67274;SDS011;55463;52.324;5.122;2023-05-10T14:52:05;12.45;;;5.13;;
67274;SDS011;55463;52.324;5.122;2023-05-10T14:54:31;11.43;;;5.53;;
67274;SDS011;55463;52.324;5.122;2023-05-10T14:56:58;11.13;;;6.30;;
67274;SDS011;55463;52.324;5.122;2023-05-10T14:59:23;14.38;;;5.63;;
67274;SDS011;55463;52.324;5.122;2023-05-10T15:01:49;11.48;;;5.80;;
67274;SDS011;55463;52.324;5.122;2023-05-10T15:04:14;12.55;;;5.80;;
67274;SDS011;55463;52.324;5.122;2023-05-10T15:06:41;13.20;;;5.53;;
67274;SDS011;55463;52.324;5.122;2023-05-10T15:09:06;9.32;;;5.75;;